createdAt,value
2024-04-17T00:00:00.798Z,100.00
2024-04-17T00:02:28.210Z,100.00
2024-04-17T00:04:55.695Z,100.00
2024-04-17T00:07:23.286Z,100.00
2024-04-17T00:09:50.735Z,100.00
2024-04-17T00:12:20.745Z,100.00
2024-04-17T00:14:48.153Z,100.00
2024-04-17T00:17:15.623Z,100.00
2024-04-17T00:19:43.186Z,100.00
2024-04-17T00:22:10.728Z,100.00
2024-04-17T00:24:38.312Z,100.00
2024-04-17T00:27:05.744Z,100.00
2024-04-17T00:29:33.234Z,100.00
2024-04-17T00:32:00.715Z,100.00
2024-04-17T00:34:28.267Z,100.00
2024-04-17T00:36:55.788Z,100.00
2024-04-17T00:39:23.317Z,100.00
2024-04-17T00:41:50.772Z,100.00
2024-04-17T00:44:18.213Z,100.00
2024-04-17T00:46:46.044Z,100.00
2024-04-17T00:49:14.618Z,100.00
2024-04-17T00:51:43.755Z,100.00
2024-04-17T00:54:12.794Z,100.00
2024-04-17T00:56:41.645Z,100.00
2024-04-17T00:59:10.224Z,100.00
2024-04-17T01:01:38.969Z,100.00
2024-04-17T01:04:06.575Z,100.00
2024-04-17T01:06:33.990Z,100.00
2024-04-17T01:09:01.521Z,100.00
2024-04-17T01:11:38.795Z,100.00
2024-04-17T01:14:06.374Z,100.00
2024-04-17T01:16:38.234Z,100.00
2024-04-17T01:19:06.602Z,100.00
2024-04-17T01:21:34.888Z,100.00
2024-04-17T01:24:02.581Z,100.00
2024-04-17T01:26:30.143Z,100.00
2024-04-17T01:28:57.748Z,100.00
2024-04-17T01:31:25.797Z,100.00
2024-04-17T01:33:53.367Z,100.00
2024-04-17T01:36:21.799Z,100.00
2024-04-17T01:38:49.373Z,100.00
2024-04-17T01:41:17.227Z,100.00
2024-04-17T01:43:44.777Z,100.00
2024-04-17T01:46:12.512Z,100.00
2024-04-17T01:48:40.040Z,100.00
2024-04-17T01:51:07.602Z,100.00
2024-04-17T01:53:35.067Z,100.00
2024-04-17T01:56:02.598Z,100.00
2024-04-17T01:58:30.207Z,100.00
2024-04-17T02:00:58.033Z,100.00
2024-04-17T02:03:25.586Z,100.00
2024-04-17T02:05:53.651Z,100.00
2024-04-17T02:08:21.206Z,100.00
2024-04-17T02:10:48.755Z,100.00
2024-04-17T02:13:16.345Z,100.00
2024-04-17T02:15:43.846Z,100.00
2024-04-17T02:18:11.571Z,100.00
2024-04-17T02:20:39.551Z,100.00
2024-04-17T02:23:07.114Z,100.00
2024-04-17T02:25:34.695Z,100.00
2024-04-17T02:28:02.188Z,100.00
2024-04-17T02:30:31.068Z,100.00
2024-04-17T02:32:58.782Z,100.00
2024-04-17T02:35:26.359Z,100.00
2024-04-17T02:37:53.889Z,100.00
2024-04-17T02:40:21.517Z,100.00
2024-04-17T02:42:49.053Z,100.00
2024-04-17T02:45:16.614Z,100.00
2024-04-17T02:47:44.705Z,100.00
2024-04-17T02:50:12.318Z,100.00
2024-04-17T02:52:41.216Z,100.00
2024-04-17T02:55:09.034Z,100.00
2024-04-17T02:57:36.638Z,100.00
2024-04-17T03:00:07.407Z,100.00
2024-04-17T03:02:34.843Z,100.00
2024-04-17T03:05:02.507Z,100.00
2024-04-17T03:07:30.130Z,100.00
2024-04-17T03:09:57.654Z,100.00
2024-04-17T03:12:25.074Z,100.00
2024-04-17T03:14:52.599Z,100.00
2024-04-17T03:17:20.072Z,100.00
2024-04-17T03:19:47.668Z,100.00
2024-04-17T03:22:15.115Z,100.00
2024-04-17T03:24:42.647Z,100.00
2024-04-17T03:27:10.068Z,100.00
2024-04-17T03:29:37.630Z,100.00
2024-04-17T03:32:05.486Z,100.00
2024-04-17T03:34:33.174Z,100.00
2024-04-17T03:37:00.688Z,100.00
2024-04-17T03:39:30.601Z,100.00
2024-04-17T03:41:58.082Z,100.00
2024-04-17T03:44:25.547Z,100.00
2024-04-17T03:46:53.107Z,100.00
2024-04-17T03:49:20.661Z,100.00
2024-04-17T03:51:48.096Z,100.00
2024-04-17T03:54:15.562Z,100.00
2024-04-17T03:56:43.061Z,100.00
2024-04-17T03:59:11.150Z,100.00
2024-04-17T04:01:38.571Z,100.00
2024-04-17T04:04:06.347Z,100.00
2024-04-17T04:06:33.928Z,100.00
2024-04-17T04:09:02.044Z,100.00
2024-04-17T04:11:29.443Z,100.00
2024-04-17T04:13:57.017Z,100.00
2024-04-17T04:16:24.606Z,100.00
2024-04-17T04:18:52.120Z,100.00
2024-04-17T04:21:19.600Z,100.00
2024-04-17T04:23:49.005Z,100.00
2024-04-17T04:26:16.493Z,100.00
2024-04-17T04:28:48.011Z,100.00
2024-04-17T04:31:15.509Z,100.00
2024-04-17T04:33:43.034Z,100.00
2024-04-17T04:36:10.386Z,100.00
2024-04-17T04:38:37.835Z,100.00
2024-04-17T04:41:05.495Z,100.00
2024-04-17T04:43:33.098Z,100.00
2024-04-17T04:46:00.639Z,100.00
2024-04-17T04:48:28.109Z,100.00
2024-04-17T04:50:55.632Z,100.00
2024-04-17T04:53:23.094Z,100.00
2024-04-17T04:56:03.557Z,100.00
2024-04-17T04:58:31.320Z,100.00
2024-04-17T05:00:59.039Z,100.00
2024-04-17T05:03:26.671Z,100.00
2024-04-17T05:05:54.389Z,100.00
2024-04-17T05:08:21.966Z,100.00
2024-04-17T05:10:49.499Z,100.00
2024-04-17T05:13:18.411Z,100.00
2024-04-17T05:15:46.124Z,100.00
2024-04-17T05:18:13.717Z,100.00
2024-04-17T05:20:41.212Z,100.00
2024-04-17T05:23:08.664Z,100.00
2024-04-17T05:25:37.080Z,100.00
2024-04-17T05:28:06.060Z,100.00
2024-04-17T05:30:34.746Z,100.00
2024-04-17T05:33:02.911Z,100.00
2024-04-17T05:35:32.034Z,100.00
2024-04-17T05:37:59.594Z,100.00
2024-04-17T05:40:27.148Z,100.00
2024-04-17T05:42:56.902Z,100.00
2024-04-17T05:45:24.812Z,100.00
2024-04-17T05:47:52.402Z,100.00
2024-04-17T05:50:19.878Z,100.00
2024-04-17T05:52:48.964Z,100.00
2024-04-17T05:55:16.491Z,100.00
2024-04-17T05:57:44.058Z,100.00
2024-04-17T06:00:12.428Z,100.00
2024-04-17T06:02:39.980Z,100.00
2024-04-17T06:05:07.708Z,100.00
2024-04-17T06:07:35.219Z,100.00
2024-04-17T06:10:02.997Z,100.00
2024-04-17T06:12:30.480Z,100.00
2024-04-17T06:14:57.984Z,100.00
2024-04-17T06:17:26.384Z,100.00
2024-04-17T06:19:54.871Z,100.00
2024-04-17T06:22:22.755Z,100.00
2024-04-17T06:24:50.405Z,100.00
2024-04-17T06:27:18.115Z,100.00
2024-04-17T06:29:45.621Z,100.00
2024-04-17T06:32:13.173Z,100.00
2024-04-17T06:34:43.686Z,100.00
2024-04-17T06:37:11.227Z,100.00
2024-04-17T06:39:38.908Z,100.00
2024-04-17T06:42:06.647Z,100.00
2024-04-17T06:44:35.179Z,100.00
2024-04-17T06:47:03.330Z,100.00
2024-04-17T06:49:31.597Z,100.00
2024-04-17T06:51:59.341Z,100.00
2024-04-17T06:54:27.065Z,100.00
2024-04-17T06:56:57.249Z,100.00
2024-04-17T06:59:27.708Z,100.00
2024-04-17T07:01:56.994Z,100.00
2024-04-17T07:04:24.877Z,100.00
2024-04-17T07:06:52.687Z,100.00
2024-04-17T07:09:20.160Z,100.00
2024-04-17T07:11:48.502Z,100.00
2024-04-17T07:14:15.950Z,100.00
2024-04-17T07:16:43.428Z,100.00
2024-04-17T07:19:10.999Z,100.00
2024-04-17T07:21:41.334Z,100.00
2024-04-17T07:24:08.848Z,100.00
2024-04-17T07:26:36.347Z,100.00
2024-04-17T07:29:03.854Z,100.00
2024-04-17T07:31:31.335Z,100.00
2024-04-17T07:33:58.869Z,100.00
2024-04-17T07:36:26.311Z,100.00
2024-04-17T07:38:53.840Z,100.00
2024-04-17T07:41:21.497Z,100.00
2024-04-17T07:43:49.022Z,100.00
2024-04-17T07:46:16.691Z,100.00
2024-04-17T07:48:44.827Z,100.00
2024-04-17T07:51:12.450Z,100.00
2024-04-17T07:53:40.165Z,100.00
2024-04-17T07:56:07.801Z,100.00
2024-04-17T07:58:35.599Z,100.00
2024-04-17T08:01:03.108Z,100.00
2024-04-17T08:03:30.604Z,100.00
2024-04-17T08:05:58.113Z,100.00
2024-04-17T08:08:26.013Z,100.00
2024-04-17T08:10:53.794Z,100.00
2024-04-17T08:13:21.210Z,100.00
2024-04-17T08:15:58.488Z,100.00
2024-04-17T08:18:25.960Z,100.00
2024-04-17T08:20:57.996Z,100.00
2024-04-17T08:23:29.190Z,100.00
2024-04-17T08:26:00.014Z,100.00
2024-04-17T08:28:27.628Z,100.00
2024-04-17T08:30:55.228Z,100.00
2024-04-17T08:33:22.932Z,100.00
2024-04-17T08:35:50.538Z,100.00
2024-04-17T08:38:18.159Z,100.00
2024-04-17T08:40:47.189Z,100.00
2024-04-17T08:43:27.450Z,100.00
2024-04-17T08:45:56.413Z,100.00
2024-04-17T08:48:27.281Z,100.00
2024-04-17T08:50:56.994Z,100.00
2024-04-17T08:53:27.511Z,100.00
2024-04-17T08:55:56.327Z,100.00
2024-04-17T09:01:37.067Z,100.00
2024-04-17T09:04:05.198Z,100.00
2024-04-17T09:06:34.143Z,100.00
2024-04-17T09:09:02.598Z,100.00
2024-04-17T09:11:31.478Z,100.00
2024-04-17T09:13:59.023Z,100.00
2024-04-17T09:16:26.584Z,100.00
2024-04-17T09:18:54.147Z,100.00
2024-04-17T09:21:24.098Z,100.00
2024-04-17T09:23:54.073Z,100.00
2024-04-17T09:26:23.420Z,100.00
2024-04-17T09:28:52.071Z,100.00
2024-04-17T09:31:19.808Z,100.00
2024-04-17T09:33:50.237Z,100.00
2024-04-17T09:36:18.517Z,100.00
2024-04-17T09:38:47.627Z,100.00
2024-04-17T09:41:16.132Z,100.00
2024-04-17T09:43:44.187Z,100.00
2024-04-17T09:46:17.776Z,99.58
2024-04-17T09:48:54.777Z,100.00
2024-04-17T09:51:27.220Z,100.00
2024-04-17T09:54:03.926Z,100.00
2024-04-17T09:56:33.862Z,91.53
2024-04-17T09:59:08.084Z,95.58
2024-04-17T10:01:39.283Z,90.71
2024-04-17T10:04:12.853Z,89.04
2024-04-17T10:06:45.675Z,90.87
2024-04-17T10:09:14.765Z,87.11
2024-04-17T10:11:42.978Z,85.12
2024-04-17T10:14:13.351Z,85.16
2024-04-17T10:16:41.214Z,82.72
2024-04-17T10:19:10.246Z,84.40
2024-04-17T10:21:38.214Z,85.33
2024-04-17T10:24:10.711Z,83.25
2024-04-17T10:26:52.493Z,83.46
2024-04-17T10:29:25.464Z,82.49
2024-04-17T10:32:20.987Z,81.22
2024-04-17T10:34:50.574Z,82.75
2024-04-17T10:37:20.289Z,83.36
2024-04-17T10:39:48.325Z,81.71
2024-04-17T10:42:18.919Z,81.80
2024-04-17T10:44:47.354Z,80.78
2024-04-17T10:47:22.424Z,81.53
2024-04-17T10:50:04.318Z,80.69
2024-04-17T10:52:33.412Z,78.75
2024-04-17T10:55:06.695Z,80.34
2024-04-17T10:57:34.285Z,79.72
2024-04-17T11:00:02.137Z,80.71
2024-04-17T11:02:31.095Z,81.66
2024-04-17T11:04:58.621Z,80.54
2024-04-17T11:07:26.392Z,79.27
2024-04-17T11:09:53.876Z,78.66
2024-04-17T11:12:21.569Z,78.33
2024-04-17T11:15:00.078Z,78.50
2024-04-17T11:17:28.204Z,78.53
2024-04-17T11:19:56.357Z,79.26
2024-04-17T11:22:26.890Z,79.91
2024-04-17T11:25:01.082Z,77.88
2024-04-17T11:27:28.664Z,78.13
2024-04-17T11:29:59.008Z,78.36
2024-04-17T11:32:29.216Z,75.65
2024-04-17T11:34:57.557Z,75.32
2024-04-17T11:37:26.264Z,74.65
2024-04-17T11:39:53.829Z,75.28
2024-04-17T11:42:21.388Z,74.96
2024-04-17T11:44:49.042Z,74.46
2024-04-17T11:47:19.174Z,74.63
2024-04-17T11:49:46.693Z,73.94
2024-04-17T11:52:14.722Z,74.14
2024-04-17T11:54:42.627Z,73.94
2024-04-17T11:57:13.480Z,72.16
2024-04-17T11:59:43.774Z,70.72
2024-04-17T12:02:12.034Z,70.66
2024-04-17T12:04:39.696Z,70.51
2024-04-17T12:07:07.316Z,70.86
2024-04-17T12:09:34.737Z,69.50
2024-04-17T12:12:03.038Z,70.50
2024-04-17T12:14:30.480Z,69.17
2024-04-17T12:16:57.972Z,69.02
2024-04-17T12:19:29.369Z,68.78
2024-04-17T12:21:57.330Z,70.17
2024-04-17T12:24:46.105Z,69.34
2024-04-17T12:27:13.958Z,69.95
2024-04-17T12:29:43.008Z,67.73
2024-04-17T12:32:10.455Z,69.55
2024-04-17T12:34:39.579Z,69.29
2024-04-17T12:37:08.216Z,70.04
2024-04-17T12:39:35.633Z,69.63
2024-04-17T12:42:03.207Z,70.32
2024-04-17T12:44:31.449Z,69.81
2024-04-17T12:46:58.999Z,67.89
2024-04-17T12:49:26.565Z,68.29
2024-04-17T12:51:57.226Z,68.52
2024-04-17T12:54:24.923Z,67.27
2024-04-17T12:56:52.568Z,66.44
2024-04-17T12:59:20.601Z,67.02
2024-04-17T13:01:48.152Z,67.08
2024-04-17T13:04:17.295Z,67.49
2024-04-17T13:06:46.007Z,67.45
2024-04-17T13:09:16.636Z,68.05
2024-04-17T13:11:44.110Z,68.50
2024-04-17T13:14:12.427Z,67.87
2024-04-17T13:16:40.002Z,68.86
2024-04-17T13:19:07.462Z,68.84
2024-04-17T13:21:35.569Z,69.06
2024-04-17T13:24:03.799Z,68.52
2024-04-17T13:26:31.923Z,68.62
2024-04-17T13:28:59.660Z,68.68
2024-04-17T13:31:27.350Z,68.01
2024-04-17T13:33:56.175Z,68.86
2024-04-17T13:36:23.751Z,68.86
2024-04-17T13:38:51.322Z,68.39
2024-04-17T13:41:19.993Z,68.08
2024-04-17T13:43:49.344Z,67.86
2024-04-17T13:46:18.046Z,68.08
2024-04-17T13:48:45.748Z,67.93
2024-04-17T13:51:13.836Z,67.78
2024-04-17T13:53:42.727Z,68.35
2024-04-17T13:56:18.178Z,67.63
2024-04-17T13:58:46.247Z,67.99
2024-04-17T14:01:13.721Z,66.96
2024-04-17T14:03:45.487Z,66.59
2024-04-17T14:06:14.362Z,65.40
2024-04-17T14:08:42.397Z,65.48
2024-04-17T14:11:09.974Z,64.86
2024-04-17T14:13:40.569Z,65.47
2024-04-17T14:16:08.365Z,66.38
2024-04-17T14:18:36.469Z,64.61
2024-04-17T14:21:08.080Z,65.35
2024-04-17T14:23:36.068Z,64.33
2024-04-17T14:26:03.845Z,64.80
2024-04-17T14:28:32.402Z,65.23
2024-04-17T14:31:00.951Z,65.34
2024-04-17T14:33:32.232Z,65.32
2024-04-17T14:36:09.293Z,63.79
2024-04-17T14:38:38.198Z,64.83
2024-04-17T14:41:07.054Z,63.83
2024-04-17T14:43:36.871Z,63.50
2024-04-17T14:46:05.535Z,64.12
2024-04-17T14:48:36.901Z,63.86
2024-04-17T14:51:09.759Z,64.11
2024-04-17T14:53:38.622Z,64.00
2024-04-17T14:56:09.445Z,63.80
2024-04-17T14:58:38.490Z,63.82
2024-04-17T15:01:08.436Z,63.68
2024-04-17T15:03:37.292Z,64.09
2024-04-17T15:06:06.525Z,63.77
2024-04-17T15:08:34.797Z,64.46
2024-04-17T15:11:12.784Z,64.42
2024-04-17T15:13:43.164Z,64.06
2024-04-17T15:16:12.960Z,64.22
2024-04-17T15:18:41.165Z,64.10
2024-04-17T15:21:13.744Z,63.19
2024-04-17T15:23:43.052Z,63.39
2024-04-17T15:26:12.095Z,63.59
2024-04-17T15:28:41.023Z,63.75
2024-04-17T15:31:19.970Z,63.62
2024-04-17T15:33:53.275Z,64.05
2024-04-17T15:36:23.193Z,63.80
2024-04-17T15:38:52.856Z,63.33
2024-04-17T15:41:21.495Z,63.99
2024-04-17T15:43:49.570Z,64.14
2024-04-17T15:46:18.246Z,64.29
2024-04-17T15:48:46.630Z,64.58
2024-04-17T15:51:16.084Z,64.51
2024-04-17T15:53:46.314Z,65.14
2024-04-17T15:56:23.880Z,65.37
2024-04-17T15:58:52.626Z,65.61
2024-04-17T16:01:20.847Z,66.06
2024-04-17T16:03:50.731Z,65.71
2024-04-17T16:06:25.189Z,66.33
2024-04-17T16:08:53.761Z,65.72
2024-04-17T16:11:22.668Z,65.80
2024-04-17T16:13:50.563Z,66.02
2024-04-17T16:16:21.093Z,66.37
2024-04-17T16:18:48.583Z,65.82
2024-04-17T16:21:18.493Z,66.12
2024-04-17T16:23:46.197Z,66.63
2024-04-17T16:26:17.851Z,66.84
2024-04-17T16:28:47.576Z,66.90
2024-04-17T16:31:20.321Z,66.75
2024-04-17T16:33:49.895Z,66.65
2024-04-17T16:36:17.954Z,66.59
2024-04-17T16:38:46.892Z,66.37
2024-04-17T16:41:17.263Z,66.54
2024-04-17T16:43:44.766Z,66.05
2024-04-17T16:46:15.569Z,66.22
2024-04-17T16:48:43.509Z,66.38
2024-04-17T16:51:14.560Z,66.21
2024-04-17T16:53:42.028Z,66.22
2024-04-17T16:56:09.665Z,66.27
2024-04-17T16:58:39.450Z,66.31
2024-04-17T17:01:09.633Z,66.32
2024-04-17T17:03:37.811Z,66.54
2024-04-17T17:06:07.547Z,67.07
2024-04-17T17:08:35.378Z,67.22
2024-04-17T17:11:02.855Z,67.35
2024-04-17T17:13:30.609Z,67.63
2024-04-17T17:16:08.064Z,67.69
2024-04-17T17:18:36.151Z,68.20
2024-04-17T17:21:10.134Z,67.90
2024-04-17T17:23:38.174Z,67.83
2024-04-17T17:26:13.352Z,67.44
2024-04-17T17:28:42.675Z,68.02
2024-04-17T17:31:10.117Z,68.33
2024-04-17T17:33:38.444Z,68.31
2024-04-17T17:36:06.698Z,68.88
2024-04-17T17:38:40.220Z,69.00
2024-04-17T17:41:21.522Z,68.79
2024-04-17T17:43:50.517Z,69.04
2024-04-17T17:46:19.908Z,69.21
2024-04-17T17:48:50.776Z,69.33
2024-04-17T17:51:19.024Z,69.17
2024-04-17T17:53:46.710Z,69.54
2024-04-17T17:56:16.119Z,69.85
2024-04-17T17:58:47.621Z,70.50
2024-04-17T18:01:19.869Z,70.39
2024-04-17T18:03:51.602Z,70.20
2024-04-17T18:06:19.765Z,70.73
2024-04-17T18:08:47.373Z,70.96
2024-04-17T18:11:16.299Z,71.19
2024-04-17T18:13:44.276Z,71.35
2024-04-17T18:16:19.517Z,71.71
2024-04-17T18:18:55.373Z,71.81
2024-04-17T18:21:23.101Z,71.44
2024-04-17T18:23:50.603Z,71.77
2024-04-17T18:26:22.193Z,72.33
2024-04-17T18:28:51.628Z,72.39
2024-04-17T18:31:19.958Z,72.44
2024-04-17T18:33:51.411Z,72.66
2024-04-17T18:36:23.831Z,72.56
2024-04-17T18:38:52.738Z,72.81
2024-04-17T18:41:25.260Z,72.53
2024-04-17T18:43:56.031Z,72.92
2024-04-17T18:46:27.423Z,72.79
2024-04-17T18:48:56.701Z,72.70
2024-04-17T18:51:24.915Z,72.72
2024-04-17T18:53:53.679Z,72.86
2024-04-17T18:56:22.699Z,73.39
2024-04-17T18:58:50.252Z,73.47
2024-04-17T19:01:18.568Z,73.19
2024-04-17T19:03:46.847Z,73.44
2024-04-17T19:06:17.853Z,74.32
2024-04-17T19:08:46.789Z,75.11
2024-04-17T19:11:14.743Z,74.22
2024-04-17T19:13:42.843Z,74.28
2024-04-17T19:16:16.393Z,74.52
2024-04-17T19:18:46.033Z,74.71
2024-04-17T19:21:18.387Z,74.94
2024-04-17T19:23:47.209Z,75.42
2024-04-17T19:26:14.770Z,75.99
2024-04-17T19:28:44.636Z,76.63
2024-04-17T19:31:12.944Z,76.81
2024-04-17T19:33:50.126Z,76.95
2024-04-17T19:36:23.823Z,77.11
2024-04-17T19:38:53.046Z,77.89
2024-04-17T19:41:24.155Z,78.23
2024-04-17T19:43:56.894Z,78.77
2024-04-17T19:46:25.954Z,79.06
2024-04-17T19:48:53.585Z,78.61
2024-04-17T19:51:22.447Z,79.42
2024-04-17T19:53:49.930Z,79.22
2024-04-17T19:56:19.229Z,79.51
2024-04-17T19:58:47.510Z,79.63
2024-04-17T20:01:16.131Z,79.42
2024-04-17T20:03:44.691Z,79.42
2024-04-17T20:06:13.839Z,79.27
2024-04-17T20:08:43.286Z,79.35
2024-04-17T20:11:11.893Z,79.40
2024-04-17T20:13:42.107Z,79.18
2024-04-17T20:16:10.388Z,79.45
2024-04-17T20:18:39.712Z,79.41
2024-04-17T20:21:10.296Z,79.21
2024-04-17T20:23:39.639Z,79.68
2024-04-17T20:26:10.137Z,79.45
2024-04-17T20:28:45.036Z,79.41
2024-04-17T20:31:22.020Z,79.25
2024-04-17T20:33:49.653Z,79.94
2024-04-17T20:36:19.504Z,79.55
2024-04-17T20:38:47.405Z,79.54
2024-04-17T20:41:15.001Z,78.99
2024-04-17T20:43:42.847Z,79.31
2024-04-17T20:46:17.483Z,79.11
2024-04-17T20:48:47.682Z,79.06
2024-04-17T20:51:15.400Z,79.41
2024-04-17T20:53:45.666Z,79.31
2024-04-17T20:56:13.452Z,79.54
2024-04-17T20:58:41.009Z,79.42
2024-04-17T21:01:10.299Z,79.73
2024-04-17T21:03:38.466Z,80.05
2024-04-17T21:06:12.583Z,80.31
2024-04-17T21:08:43.300Z,80.54
2024-04-17T21:11:12.617Z,80.53
2024-04-17T21:13:40.600Z,80.74
2024-04-17T21:16:18.579Z,80.06
2024-04-17T21:18:47.979Z,80.53
2024-04-17T21:21:15.622Z,80.19
2024-04-17T21:23:43.482Z,80.48
2024-04-17T21:26:18.128Z,80.49
2024-04-17T21:28:48.133Z,80.22
2024-04-17T21:31:20.305Z,80.80
2024-04-17T21:33:49.602Z,81.07
2024-04-17T21:36:17.858Z,81.33
2024-04-17T21:38:45.651Z,81.49
2024-04-17T21:41:13.448Z,81.50
2024-04-17T21:43:41.195Z,81.67
2024-04-17T21:46:10.231Z,81.83
2024-04-17T21:48:38.197Z,81.79
2024-04-17T21:51:07.086Z,82.10
2024-04-17T21:53:36.697Z,82.23
2024-04-17T21:56:06.267Z,82.51
2024-04-17T21:58:33.967Z,81.74
2024-04-17T22:01:02.100Z,82.15
2024-04-17T22:03:31.407Z,82.42
2024-04-17T22:06:06.381Z,82.11
2024-04-17T22:08:34.970Z,81.95
2024-04-17T22:11:02.922Z,82.15
2024-04-17T22:13:30.974Z,82.85
2024-04-17T22:15:59.931Z,82.64
2024-04-17T22:18:27.599Z,82.81
2024-04-17T22:20:55.139Z,82.97
2024-04-17T22:23:22.679Z,83.70
2024-04-17T22:25:50.484Z,83.27
2024-04-17T22:28:17.988Z,83.38
2024-04-17T22:30:45.528Z,83.47
2024-04-17T22:33:13.112Z,83.58
2024-04-17T22:35:40.609Z,83.62
2024-04-17T22:38:08.086Z,83.75
2024-04-17T22:40:35.474Z,83.93
2024-04-17T22:43:02.969Z,84.14
2024-04-17T22:45:30.541Z,84.52
2024-04-17T22:47:58.167Z,83.95
2024-04-17T22:50:25.630Z,83.40
2024-04-17T22:52:53.099Z,82.82
2024-04-17T22:55:20.571Z,82.09
2024-04-17T22:57:48.098Z,81.67
2024-04-17T23:00:15.947Z,81.50
2024-04-17T23:02:43.382Z,81.76
2024-04-17T23:05:10.792Z,82.28
2024-04-17T23:07:38.268Z,82.78
2024-04-17T23:10:05.790Z,82.80
2024-04-17T23:12:33.624Z,83.02
2024-04-17T23:15:01.153Z,83.22
2024-04-17T23:17:28.799Z,83.63
2024-04-17T23:19:56.176Z,83.67
2024-04-17T23:22:23.922Z,84.03
2024-04-17T23:24:51.400Z,83.47
2024-04-17T23:27:18.814Z,84.03
2024-04-17T23:29:46.293Z,84.16
2024-04-17T23:32:15.185Z,84.29
2024-04-17T23:34:42.789Z,84.16
2024-04-17T23:37:10.212Z,84.90
2024-04-17T23:39:40.788Z,85.71
2024-04-17T23:42:08.336Z,85.68
2024-04-17T23:44:35.847Z,86.25
2024-04-17T23:47:03.386Z,86.48
2024-04-17T23:49:30.847Z,86.74
2024-04-17T23:51:58.777Z,86.76
2024-04-17T23:54:26.597Z,87.30
2024-04-17T23:56:53.956Z,88.18
2024-04-17T23:59:21.459Z,88.06
